createdAt,value
2022-12-12T00:00:14.748Z,10.63
2022-12-12T00:02:42.488Z,10.40
2022-12-12T00:05:10.066Z,11.20
2022-12-12T00:07:36.861Z,10.93
2022-12-12T00:10:04.529Z,10.60
2022-12-12T00:12:30.996Z,11.20
2022-12-12T00:14:57.935Z,10.57
2022-12-12T00:17:24.422Z,10.00
2022-12-12T00:19:51.015Z,10.60
2022-12-12T00:22:17.722Z,11.57
2022-12-12T00:24:44.318Z,10.50
2022-12-12T00:27:10.839Z,11.43
2022-12-12T00:29:37.424Z,12.93
2022-12-12T00:32:04.036Z,14.13
2022-12-12T00:34:30.552Z,15.63
2022-12-12T00:36:57.036Z,15.60
2022-12-12T00:39:23.772Z,15.57
2022-12-12T00:41:50.860Z,15.13
2022-12-12T00:44:19.050Z,16.40
2022-12-12T00:46:45.618Z,16.43
2022-12-12T00:49:13.147Z,16.30
2022-12-12T00:51:39.609Z,16.10
2022-12-12T00:54:06.100Z,15.33
2022-12-12T00:56:32.684Z,13.00
2022-12-12T00:58:59.158Z,10.37
2022-12-12T01:01:29.008Z,11.23
2022-12-12T01:03:55.756Z,10.57
2022-12-12T01:06:22.470Z,10.40
2022-12-12T01:08:49.343Z,11.43
2022-12-12T01:11:17.495Z,10.47
2022-12-12T01:13:44.084Z,10.03
2022-12-12T01:16:11.582Z,10.97
2022-12-12T01:18:38.180Z,11.97
2022-12-12T01:21:09.707Z,11.53
2022-12-12T01:23:36.484Z,11.20
2022-12-12T01:26:06.037Z,10.23
2022-12-12T01:28:33.258Z,10.80
2022-12-12T01:30:59.833Z,10.50
2022-12-12T01:33:26.502Z,11.00
2022-12-12T01:35:53.120Z,11.13
2022-12-12T01:38:19.621Z,11.43
2022-12-12T01:40:46.806Z,11.73
2022-12-12T01:43:21.549Z,12.93
2022-12-12T01:46:03.004Z,11.93
2022-12-12T01:48:35.253Z,12.40
2022-12-12T01:51:06.991Z,13.50
2022-12-12T01:53:34.663Z,13.73
2022-12-12T01:56:06.005Z,14.80
2022-12-12T01:58:33.880Z,15.20
2022-12-12T02:01:01.574Z,16.70
2022-12-12T02:03:28.202Z,17.67
2022-12-12T02:06:02.529Z,18.10
2022-12-12T02:08:30.238Z,19.10
2022-12-12T02:10:56.880Z,18.60
2022-12-12T02:13:27.994Z,18.07
2022-12-12T02:16:14.837Z,18.60
2022-12-12T02:18:55.673Z,18.40
2022-12-12T02:21:33.409Z,19.10
2022-12-12T02:24:28.665Z,18.60
2022-12-12T02:27:29.029Z,14.33
2022-12-12T02:30:03.627Z,12.17
2022-12-12T02:32:56.985Z,12.47
2022-12-12T02:35:35.555Z,13.30
2022-12-12T02:38:26.825Z,15.37
2022-12-12T02:40:53.302Z,12.63
2022-12-12T02:43:33.905Z,11.60
2022-12-12T02:46:07.198Z,11.83
2022-12-12T02:49:18.790Z,13.47
2022-12-12T02:51:46.006Z,12.27
2022-12-12T02:54:17.535Z,12.70
2022-12-12T02:56:53.223Z,11.27
2022-12-12T02:59:20.154Z,11.20
2022-12-12T03:01:55.440Z,11.23
2022-12-12T03:04:47.764Z,11.23
2022-12-12T03:07:47.748Z,11.83
2022-12-12T03:10:41.027Z,12.73
2022-12-12T03:13:13.410Z,13.60
2022-12-12T03:15:51.633Z,12.53
2022-12-12T03:18:33.615Z,12.50
2022-12-12T03:21:05.789Z,12.30
2022-12-12T03:23:38.290Z,12.60
2022-12-12T03:26:21.455Z,12.27
2022-12-12T03:28:54.976Z,11.77
2022-12-12T03:31:25.487Z,11.97
2022-12-12T03:34:04.291Z,12.70
2022-12-12T03:36:40.675Z,13.47
2022-12-12T03:39:13.283Z,13.27
2022-12-12T03:41:43.752Z,13.70
2022-12-12T03:44:18.735Z,12.57
2022-12-12T03:46:52.066Z,13.43
2022-12-12T03:49:28.052Z,13.70
2022-12-12T03:52:03.151Z,12.83
2022-12-12T03:54:59.280Z,12.47
2022-12-12T03:57:34.486Z,12.20
2022-12-12T04:00:07.743Z,13.10
2022-12-12T04:03:17.998Z,13.50
2022-12-12T04:06:11.228Z,13.57
2022-12-12T04:08:38.887Z,13.17
2022-12-12T04:11:43.808Z,13.30
2022-12-12T04:14:45.736Z,12.20
2022-12-12T04:17:18.952Z,13.83
2022-12-12T04:20:19.461Z,13.93
2022-12-12T04:23:17.723Z,14.10
2022-12-12T04:26:24.848Z,14.20
2022-12-12T04:28:59.716Z,13.87
2022-12-12T04:31:30.732Z,13.73
2022-12-12T04:34:07.756Z,17.07
2022-12-12T04:36:35.480Z,17.30
2022-12-12T04:39:04.532Z,18.60
2022-12-12T04:41:34.450Z,20.13
2022-12-12T04:44:04.017Z,20.87
2022-12-12T04:46:33.231Z,20.47
2022-12-12T04:49:07.788Z,18.60
2022-12-12T04:51:42.463Z,19.37
2022-12-12T04:54:14.687Z,19.40
2022-12-12T04:56:44.803Z,20.73
2022-12-12T04:59:11.670Z,20.17
2022-12-12T05:01:53.511Z,20.83
2022-12-12T05:04:36.107Z,21.10
2022-12-12T05:07:09.945Z,21.83
2022-12-12T05:09:37.428Z,21.20
2022-12-12T05:12:04.499Z,21.83
2022-12-12T05:14:31.794Z,22.97
2022-12-12T05:17:03.437Z,20.73
2022-12-12T05:19:29.956Z,21.23
2022-12-12T05:21:56.440Z,19.47
2022-12-12T05:24:22.881Z,17.73
2022-12-12T05:26:49.417Z,17.87
2022-12-12T05:29:15.879Z,17.23
2022-12-12T05:31:42.326Z,16.90
2022-12-12T05:34:10.171Z,16.27
2022-12-12T05:36:36.720Z,17.03
2022-12-12T05:39:03.459Z,16.50
2022-12-12T05:41:29.946Z,15.83
2022-12-12T05:43:56.414Z,16.60
2022-12-12T05:46:22.967Z,15.23
2022-12-12T05:48:50.785Z,17.70
2022-12-12T05:51:18.046Z,18.43
2022-12-12T05:53:45.140Z,19.20
2022-12-12T05:56:12.413Z,18.80
2022-12-12T05:58:40.059Z,18.30
2022-12-12T06:01:07.263Z,19.27
2022-12-12T06:03:34.491Z,19.13
2022-12-12T06:06:01.497Z,18.53
2022-12-12T06:08:28.112Z,20.27
2022-12-12T06:10:55.925Z,19.93
2022-12-12T06:13:22.420Z,21.63
2022-12-12T06:15:48.989Z,21.47
2022-12-12T06:18:16.392Z,21.03
2022-12-12T06:20:43.766Z,20.33
2022-12-12T06:23:10.375Z,20.93
2022-12-12T06:25:36.819Z,21.53
2022-12-12T06:28:03.475Z,21.63
2022-12-12T06:30:29.964Z,20.57
2022-12-12T06:32:56.489Z,21.90
2022-12-12T06:35:23.025Z,21.47
2022-12-12T06:37:49.561Z,20.53
2022-12-12T06:40:16.372Z,20.10
2022-12-12T06:42:47.874Z,19.37
2022-12-12T06:45:15.742Z,19.37
2022-12-12T06:47:42.456Z,20.17
2022-12-12T06:50:09.464Z,20.33
2022-12-12T06:52:36.678Z,20.57
2022-12-12T06:55:03.541Z,20.00
2022-12-12T06:57:30.009Z,20.70
2022-12-12T06:59:56.451Z,23.67
2022-12-12T07:02:29.265Z,22.30
2022-12-12T07:04:56.785Z,23.80
2022-12-12T07:07:23.357Z,24.10
2022-12-12T07:09:49.921Z,25.43
2022-12-12T07:12:16.409Z,25.63
2022-12-12T07:14:42.843Z,26.40
2022-12-12T07:17:09.311Z,32.27
2022-12-12T07:19:36.011Z,26.67
2022-12-12T07:22:09.145Z,27.33
2022-12-12T07:24:36.508Z,31.97
2022-12-12T07:27:03.340Z,29.27
2022-12-12T07:29:29.931Z,25.73
2022-12-12T07:31:56.456Z,24.83
2022-12-12T07:34:22.976Z,24.80
2022-12-12T07:36:49.490Z,24.43
2022-12-12T07:39:20.592Z,25.70
2022-12-12T07:41:47.672Z,24.53
2022-12-12T07:44:15.907Z,27.40
2022-12-12T07:46:42.474Z,31.97
2022-12-12T07:49:08.975Z,28.17
2022-12-12T07:51:35.642Z,25.53
2022-12-12T07:54:02.134Z,32.80
2022-12-12T07:56:28.603Z,26.20
2022-12-12T07:58:55.476Z,25.97
2022-12-12T08:01:25.386Z,26.13
2022-12-12T08:03:52.431Z,27.20
2022-12-12T08:06:19.805Z,27.30
2022-12-12T08:08:47.861Z,26.30
2022-12-12T08:11:18.448Z,26.03
2022-12-12T08:13:45.105Z,27.00
2022-12-12T08:16:33.673Z,29.30
2022-12-12T08:19:00.441Z,27.30
2022-12-12T08:21:27.910Z,25.83
2022-12-12T08:24:02.132Z,25.57
2022-12-12T08:26:29.628Z,28.40
2022-12-12T08:28:57.485Z,26.63
2022-12-12T08:31:24.735Z,25.77
2022-12-12T08:33:51.915Z,23.97
2022-12-12T08:36:21.629Z,24.17
2022-12-12T08:38:49.016Z,22.77
2022-12-12T08:41:16.176Z,21.87
2022-12-12T08:43:43.806Z,21.30
2022-12-12T08:46:17.111Z,20.37
2022-12-12T08:48:44.977Z,19.83
2022-12-12T08:51:12.181Z,17.97
2022-12-12T08:53:43.971Z,18.27
2022-12-12T08:56:10.430Z,18.27
2022-12-12T08:58:36.945Z,17.93
2022-12-12T09:01:09.061Z,19.27
2022-12-12T09:03:35.518Z,18.37
2022-12-12T09:06:01.971Z,17.13
2022-12-12T09:08:30.724Z,17.27
2022-12-12T09:10:57.312Z,18.50
2022-12-12T09:13:23.785Z,17.17
2022-12-12T09:15:51.383Z,18.10
2022-12-12T09:18:19.178Z,19.37
2022-12-12T09:20:53.880Z,18.83
2022-12-12T09:23:21.900Z,18.10
2022-12-12T09:25:48.860Z,19.13
2022-12-12T09:28:17.985Z,18.37
2022-12-12T09:30:45.628Z,18.10
2022-12-12T09:33:15.788Z,19.20
2022-12-12T09:35:42.909Z,19.57
2022-12-12T09:38:14.271Z,19.80
2022-12-12T09:41:10.765Z,18.60
2022-12-12T09:43:43.897Z,16.27
2022-12-12T09:46:37.720Z,17.60
2022-12-12T09:49:30.243Z,17.20
2022-12-12T09:51:57.938Z,16.87
2022-12-12T09:54:27.007Z,17.23
2022-12-12T09:57:11.869Z,17.27
2022-12-12T09:59:49.642Z,15.47
2022-12-12T10:02:58.336Z,16.17
2022-12-12T10:05:42.028Z,16.80
2022-12-12T10:08:11.472Z,16.67
2022-12-12T10:11:04.050Z,16.90
2022-12-12T10:13:33.185Z,16.83
2022-12-12T10:16:14.500Z,17.07
2022-12-12T10:18:48.764Z,17.13
2022-12-12T10:21:41.959Z,15.07
2022-12-12T10:24:32.894Z,15.37
2022-12-12T10:27:08.440Z,15.53
2022-12-12T10:29:41.101Z,17.10
2022-12-12T10:32:41.571Z,17.07
2022-12-12T10:35:49.764Z,15.90
2022-12-12T10:38:47.132Z,16.30
2022-12-12T10:41:31.155Z,15.80
2022-12-12T10:44:22.310Z,17.23
2022-12-12T10:47:18.343Z,15.53
2022-12-12T10:49:44.944Z,16.30
2022-12-12T10:52:18.263Z,16.73
2022-12-12T10:54:50.830Z,16.70
2022-12-12T10:57:26.827Z,16.83
2022-12-12T10:59:56.044Z,16.87
2022-12-12T11:02:22.595Z,17.80
2022-12-12T11:04:49.345Z,17.30
2022-12-12T11:07:20.847Z,16.93
2022-12-12T11:09:47.308Z,16.27
2022-12-12T11:12:16.640Z,16.67
2022-12-12T11:14:52.503Z,16.80
2022-12-12T11:17:24.727Z,16.50
2022-12-12T11:19:53.576Z,18.20
2022-12-12T11:22:21.070Z,18.33
2022-12-12T11:24:49.770Z,19.03
2022-12-12T11:27:28.941Z,17.50
2022-12-12T11:30:00.458Z,17.87
2022-12-12T11:32:37.820Z,16.33
2022-12-12T11:35:21.214Z,18.13
2022-12-12T11:37:51.419Z,16.33
2022-12-12T11:40:31.019Z,16.87
2022-12-12T11:43:22.353Z,16.43
2022-12-12T11:46:15.291Z,16.20
2022-12-12T11:49:02.776Z,17.70
2022-12-12T11:51:37.022Z,17.47
2022-12-12T11:54:10.710Z,15.70
2022-12-12T11:56:53.088Z,15.13
2022-12-12T11:59:56.905Z,15.00
2022-12-12T12:02:51.311Z,15.73
2022-12-12T12:05:20.713Z,15.07
2022-12-12T12:08:02.418Z,15.17
2022-12-12T12:10:28.878Z,16.13
2022-12-12T12:12:58.349Z,16.63
2022-12-12T12:15:38.224Z,14.80
2022-12-12T12:18:28.412Z,16.50
2022-12-12T12:21:07.099Z,16.23
2022-12-12T12:23:55.823Z,29.03
2022-12-12T12:26:35.110Z,18.53
2022-12-12T12:29:29.851Z,16.47
2022-12-12T12:32:27.706Z,16.67
2022-12-12T12:35:03.438Z,15.90
2022-12-12T12:37:50.761Z,15.17
2022-12-12T12:40:41.671Z,15.17
2022-12-12T12:43:41.880Z,15.33
2022-12-12T12:46:29.697Z,15.13
2022-12-12T12:49:04.232Z,15.63
2022-12-12T12:51:50.095Z,15.20
2022-12-12T12:54:39.255Z,15.43
2022-12-12T12:57:12.399Z,16.07
2022-12-12T12:59:43.848Z,14.87
2022-12-12T13:02:25.300Z,17.47
2022-12-12T13:05:07.343Z,13.47
2022-12-12T13:07:46.227Z,26.50
2022-12-12T13:10:33.589Z,16.97
2022-12-12T13:13:15.460Z,14.20
2022-12-12T13:15:46.677Z,13.40
2022-12-12T13:18:15.831Z,18.53
2022-12-12T13:20:46.008Z,16.00
2022-12-12T13:23:19.406Z,18.30
2022-12-12T13:26:06.448Z,13.97
2022-12-12T13:28:40.580Z,14.93
2022-12-12T13:31:25.427Z,18.07
2022-12-12T13:34:09.386Z,17.07
2022-12-12T13:36:40.015Z,13.57
2022-12-12T13:39:08.992Z,11.47
2022-12-12T13:42:01.184Z,12.60
2022-12-12T13:44:47.251Z,11.80
2022-12-12T13:47:22.683Z,11.83
2022-12-12T13:50:00.620Z,12.00
2022-12-12T13:52:38.023Z,11.30
2022-12-12T13:55:21.478Z,12.47
2022-12-12T13:57:57.194Z,11.17
2022-12-12T14:00:28.162Z,12.17
2022-12-12T14:03:01.719Z,12.47
2022-12-12T14:05:33.480Z,12.90
2022-12-12T14:08:22.456Z,12.57
2022-12-12T14:10:48.929Z,12.43
2022-12-12T14:13:21.226Z,11.47
2022-12-12T14:16:13.916Z,12.07
2022-12-12T14:18:57.548Z,13.33
2022-12-12T14:21:38.777Z,13.23
2022-12-12T14:24:33.529Z,13.13
2022-12-12T14:27:01.584Z,13.23
2022-12-12T14:29:30.346Z,12.90
2022-12-12T14:32:33.227Z,12.57
2022-12-12T14:35:29.020Z,12.07
2022-12-12T14:38:27.848Z,13.43
2022-12-12T14:41:00.330Z,12.60
2022-12-12T14:43:31.090Z,11.83
2022-12-12T14:45:59.766Z,12.70
2022-12-12T14:48:28.827Z,12.37
2022-12-12T14:51:10.258Z,11.87
2022-12-12T14:53:36.686Z,11.43
2022-12-12T14:56:29.639Z,11.40
2022-12-12T14:59:02.937Z,11.53
2022-12-12T15:01:34.345Z,12.43
2022-12-12T15:04:07.316Z,12.37
2022-12-12T15:06:53.385Z,11.50
2022-12-12T15:09:30.229Z,11.97
2022-12-12T15:12:42.725Z,11.80
2022-12-12T15:15:27.335Z,13.93
2022-12-12T15:17:58.629Z,14.17
2022-12-12T15:20:28.396Z,20.43
2022-12-12T15:23:01.552Z,18.77
2022-12-12T15:25:34.340Z,17.73
2022-12-12T15:28:01.895Z,23.60
2022-12-12T15:30:37.597Z,17.10
2022-12-12T15:33:08.862Z,22.30
2022-12-12T15:35:35.681Z,27.00
2022-12-12T15:38:10.324Z,62.47
2022-12-12T15:40:38.193Z,19.80
2022-12-12T15:43:11.030Z,15.73
2022-12-12T15:45:43.703Z,19.53
2022-12-12T15:48:18.298Z,14.73
2022-12-12T15:50:44.670Z,13.57
2022-12-12T15:53:32.484Z,12.00
2022-12-12T15:56:00.628Z,13.93
2022-12-12T15:58:40.045Z,13.63
2022-12-12T16:01:20.672Z,13.43
2022-12-12T16:03:58.115Z,14.03
2022-12-12T16:06:33.446Z,13.47
2022-12-12T16:09:00.656Z,17.20
2022-12-12T16:11:37.687Z,20.80
2022-12-12T16:14:22.629Z,26.23
2022-12-12T16:16:59.573Z,22.83
2022-12-12T16:19:45.899Z,17.87
2022-12-12T16:22:18.255Z,16.77
2022-12-12T16:24:54.615Z,15.30
2022-12-12T16:27:21.771Z,14.57
2022-12-12T16:29:48.623Z,15.07
2022-12-12T16:32:18.151Z,15.17
2022-12-12T16:34:45.182Z,16.47
2022-12-12T16:37:17.381Z,15.23
2022-12-12T16:39:44.362Z,15.57
2022-12-12T16:42:13.163Z,15.83
2022-12-12T16:44:39.660Z,16.87
2022-12-12T16:47:23.914Z,15.80
2022-12-12T16:49:50.908Z,16.07
2022-12-12T16:52:19.395Z,16.07
2022-12-12T16:54:53.190Z,15.27
2022-12-12T16:57:21.958Z,15.13
2022-12-12T16:59:48.705Z,15.47
2022-12-12T17:02:18.211Z,15.90
2022-12-12T17:04:44.693Z,15.53
2022-12-12T17:07:11.197Z,15.67
2022-12-12T17:09:37.681Z,15.23
2022-12-12T17:12:04.461Z,16.13
2022-12-12T17:14:31.029Z,16.50
2022-12-12T17:16:57.615Z,16.37
2022-12-12T17:19:26.281Z,22.07
2022-12-12T17:21:53.205Z,25.23
2022-12-12T17:24:20.537Z,26.00
2022-12-12T17:26:47.940Z,22.80
2022-12-12T17:29:14.577Z,23.73
2022-12-12T17:31:41.336Z,24.67
2022-12-12T17:34:08.088Z,24.03
2022-12-12T17:36:34.693Z,24.20
2022-12-12T17:39:01.253Z,24.00
2022-12-12T17:41:27.849Z,23.13
2022-12-12T17:43:56.019Z,24.70
2022-12-12T17:46:23.292Z,25.00
2022-12-12T17:48:50.191Z,22.83
2022-12-12T17:51:19.685Z,22.27
2022-12-12T17:53:46.387Z,22.50
2022-12-12T17:56:16.005Z,19.83
2022-12-12T17:58:44.687Z,20.10
2022-12-12T18:01:17.848Z,20.43
2022-12-12T18:03:44.632Z,20.63
2022-12-12T18:06:11.547Z,18.43
2022-12-12T18:08:38.659Z,19.20
2022-12-12T18:11:15.039Z,18.87
2022-12-12T18:13:42.256Z,20.10
2022-12-12T18:16:11.642Z,20.17
2022-12-12T18:18:39.175Z,21.37
2022-12-12T18:21:10.563Z,19.77
2022-12-12T18:23:39.394Z,20.60
2022-12-12T18:26:09.732Z,19.10
2022-12-12T18:28:36.519Z,18.67
2022-12-12T18:31:04.626Z,19.97
2022-12-12T18:33:31.126Z,23.23
2022-12-12T18:36:06.086Z,21.73
2022-12-12T18:38:33.454Z,22.77
2022-12-12T18:41:00.309Z,23.03
2022-12-12T18:43:28.279Z,23.20
2022-12-12T18:45:55.692Z,23.63
2022-12-12T18:48:22.373Z,23.43
2022-12-12T18:50:48.899Z,24.30
2022-12-12T18:53:15.846Z,23.73
2022-12-12T18:55:42.963Z,24.23
2022-12-12T18:58:10.813Z,24.87
2022-12-12T19:00:40.142Z,23.20
2022-12-12T19:03:07.689Z,24.50
2022-12-12T19:05:39.345Z,25.27
2022-12-12T19:08:05.898Z,23.27
2022-12-12T19:10:34.485Z,21.87
2022-12-12T19:13:01.219Z,21.37
2022-12-12T19:15:27.836Z,21.77
2022-12-12T19:17:55.985Z,23.00
2022-12-12T19:20:23.962Z,21.97
2022-12-12T19:22:50.537Z,23.57
2022-12-12T19:25:18.060Z,22.83
2022-12-12T19:27:45.110Z,22.77
2022-12-12T19:30:13.283Z,24.53
2022-12-12T19:32:41.319Z,24.83
2022-12-12T19:35:08.486Z,25.13
2022-12-12T19:37:36.022Z,25.40
2022-12-12T19:40:02.532Z,26.20
2022-12-12T19:42:28.972Z,27.17
2022-12-12T19:44:55.418Z,28.07
2022-12-12T19:47:21.890Z,27.27
2022-12-12T19:49:49.187Z,28.77
2022-12-12T19:52:15.648Z,28.00
2022-12-12T19:54:42.150Z,27.73
2022-12-12T19:57:08.613Z,27.03
2022-12-12T19:59:35.076Z,27.83
2022-12-12T20:02:01.595Z,28.10
2022-12-12T20:04:30.055Z,27.10
2022-12-12T20:06:57.278Z,23.83
2022-12-12T20:09:29.278Z,24.50
2022-12-12T20:11:58.081Z,23.47
2022-12-12T20:14:33.609Z,22.03
2022-12-12T20:17:00.657Z,22.43
2022-12-12T20:19:27.809Z,24.07
2022-12-12T20:22:03.631Z,24.97
2022-12-12T20:24:32.561Z,24.13
2022-12-12T20:27:00.004Z,23.87
2022-12-12T20:29:27.219Z,23.83
2022-12-12T20:31:53.708Z,23.70
2022-12-12T20:34:22.507Z,23.23
2022-12-12T20:36:50.186Z,23.67
2022-12-12T20:39:22.084Z,23.13
2022-12-12T20:41:50.174Z,25.37
2022-12-12T20:44:16.649Z,23.40
2022-12-12T20:46:45.787Z,23.30
2022-12-12T20:49:17.977Z,21.63
2022-12-12T20:51:55.179Z,23.20
2022-12-12T20:54:24.009Z,23.27
2022-12-12T20:56:50.495Z,24.87
2022-12-12T20:59:17.050Z,25.40
2022-12-12T21:01:43.632Z,23.50
2022-12-12T21:04:10.490Z,23.13
2022-12-12T21:06:48.049Z,23.80
2022-12-12T21:09:22.741Z,24.00
2022-12-12T21:11:52.897Z,23.10
2022-12-12T21:14:19.520Z,23.73
2022-12-12T21:16:46.328Z,23.43
2022-12-12T21:19:14.242Z,35.47
2022-12-12T21:21:42.560Z,37.50
2022-12-12T21:24:12.186Z,42.53
2022-12-12T21:26:38.746Z,36.47
2022-12-12T21:29:05.867Z,45.73
2022-12-12T21:31:36.257Z,36.27
2022-12-12T21:34:05.689Z,31.60
2022-12-12T21:36:33.491Z,33.87
2022-12-12T21:39:02.339Z,30.00
2022-12-12T21:41:29.656Z,28.77
2022-12-12T21:43:59.347Z,29.40
2022-12-12T21:46:28.441Z,30.80
2022-12-12T21:49:14.692Z,31.27
2022-12-12T21:51:41.740Z,30.83
2022-12-12T21:54:10.450Z,31.73
2022-12-12T21:56:38.004Z,30.17
2022-12-12T21:59:04.742Z,28.23
2022-12-12T22:01:32.363Z,28.67
2022-12-12T22:03:59.958Z,26.77
2022-12-12T22:06:29.689Z,25.13
2022-12-12T22:08:57.149Z,24.00
2022-12-12T22:11:40.785Z,24.30
2022-12-12T22:14:11.312Z,23.83
2022-12-12T22:16:38.420Z,23.77
2022-12-12T22:19:07.817Z,30.63
2022-12-12T22:21:35.193Z,27.33
2022-12-12T22:24:02.165Z,26.23
2022-12-12T22:26:33.390Z,28.83
2022-12-12T22:29:03.363Z,43.23
2022-12-12T22:31:31.807Z,45.63
2022-12-12T22:34:01.311Z,35.57
2022-12-12T22:36:33.908Z,27.57
2022-12-12T22:39:01.501Z,25.60
2022-12-12T22:41:29.380Z,42.67
2022-12-12T22:44:01.753Z,32.10
2022-12-12T22:46:28.866Z,30.63
2022-12-12T22:48:57.393Z,29.33
2022-12-12T22:51:27.463Z,28.03
2022-12-12T22:54:02.519Z,28.83
2022-12-12T22:56:30.998Z,26.80
2022-12-12T22:58:58.162Z,30.90
2022-12-12T23:01:26.501Z,47.20
2022-12-12T23:03:53.109Z,33.87
2022-12-12T23:06:32.657Z,25.83
2022-12-12T23:09:05.820Z,25.40
2022-12-12T23:11:33.499Z,29.53
2022-12-12T23:14:02.939Z,26.57
2022-12-12T23:16:30.936Z,27.13
2022-12-12T23:18:58.629Z,25.40
2022-12-12T23:21:26.193Z,26.17
2022-12-12T23:23:54.179Z,26.00
2022-12-12T23:26:23.784Z,26.10
2022-12-12T23:28:50.253Z,26.27
2022-12-12T23:31:20.031Z,27.07
2022-12-12T23:33:46.755Z,26.30
2022-12-12T23:36:15.178Z,26.23
2022-12-12T23:38:42.223Z,27.40
2022-12-12T23:41:11.303Z,27.40
2022-12-12T23:43:38.266Z,29.17
2022-12-12T23:46:07.554Z,26.83
2022-12-12T23:48:35.029Z,24.90
2022-12-12T23:51:01.645Z,26.67
2022-12-12T23:53:32.483Z,25.13
2022-12-12T23:56:03.950Z,25.73
2022-12-12T23:58:30.459Z,24.67
